Time;durP1;ratioP1;P1;durP2;ratioP2;P2;SDS_P1;SDS_P2;PMS_P1;PMS_P2;Temp;Humidity;BMP_temperature;BMP_pressure;BME280_temperature;BME280_humidity;BME280_pressure;Samples;Min_cycle;Max_cycle;Signal;HPM_P1;HPM_P2
2022/01/27 00:02:03;;;;;;;85.30;27.70;;;;;;;3.11;86.23;102808.97;5089090;28;20175;-74
2022/01/27 00:04:37;;;;;;;93.65;27.95;;;;;;;3.12;85.81;102809.13;5082122;28;20047;-74
2022/01/27 00:07:02;;;;;;;89.53;27.75;;;;;;;3.11;86.18;102807.34;5081009;28;20078;-74
2022/01/27 00:09:45;;;;;;;95.65;29.33;;;;;;;3.11;85.87;102796.09;5090670;28;20170;-74
2022/01/27 00:12:13;;;;;;;87.25;26.95;;;;;;;3.11;86.41;102791.88;5076451;28;20031;-73
2022/01/27 00:14:45;;;;;;;84.75;27.48;;;;;;;3.11;85.88;102785.81;5084183;28;20175;-73
2022/01/27 00:17:14;;;;;;;93.43;28.48;;;;;;;3.11;86.18;102765.19;5079188;28;20079;-74
2022/01/27 00:19:40;;;;;;;77.65;27.00;;;;;;;3.12;86.24;102759.28;5083353;28;20214;-73
2022/01/27 00:22:06;;;;;;;87.28;28.40;;;;;;;3.10;86.41;102747.94;5075605;28;20021;-73
2022/01/27 00:24:31;;;;;;;86.97;29.10;;;;;;;3.11;86.02;102752.31;5077893;28;20023;-73
2022/01/27 00:26:58;;;;;;;88.03;27.45;;;;;;;3.09;85.95;102747.03;5087626;28;20096;-73
2022/01/27 00:29:24;;;;;;;85.90;26.33;;;;;;;3.09;86.13;102749.63;5074210;28;20028;-73
2022/01/27 00:31:49;;;;;;;83.35;26.80;;;;;;;3.11;86.16;102757.47;5085409;28;20013;-73
2022/01/27 00:34:14;;;;;;;82.68;26.45;;;;;;;3.11;86.18;102766.13;5076104;28;20073;-73
2022/01/27 00:36:40;;;;;;;88.63;27.58;;;;;;;3.11;86.29;102770.34;5084644;28;20044;-74
2022/01/27 00:39:05;;;;;;;85.40;27.42;;;;;;;3.12;86.26;102764.44;5086756;28;20076;-74
2022/01/27 00:41:30;;;;;;;90.53;27.75;;;;;;;3.13;85.98;102762.00;5093362;28;20045;-74
2022/01/27 00:43:56;;;;;;;88.72;28.38;;;;;;;3.14;86.10;102760.31;5081318;28;20039;-74
2022/01/27 00:46:21;;;;;;;79.93;25.17;;;;;;;3.15;86.23;102756.97;5092282;28;20091;-74
2022/01/27 00:48:48;;;;;;;79.43;26.02;;;;;;;3.15;86.25;102751.81;5090043;28;20021;-74
2022/01/27 00:51:21;;;;;;;86.20;25.83;;;;;;;3.15;85.96;102738.03;5087632;28;20187;-74
2022/01/27 00:54:09;;;;;;;87.85;27.00;;;;;;;3.17;85.89;102750.25;5085005;28;20039;-73
2022/01/27 01:01:44;;;;;;;84.18;26.65;;;;;;;3.19;85.92;102738.44;5097999;28;20115;-74
2022/01/27 01:04:11;;;;;;;;;;;;;;;3.22;86.51;102730.94;5085125;28;20029;-74
2022/01/27 01:06:41;;;;;;;81.82;25.27;;;;;;;3.21;86.17;102729.13;5083932;28;19900;-73
2022/01/27 01:14:54;;;;;;;79.93;25.77;;;;;;;3.22;85.93;102723.22;5099305;28;20241;-73
2022/01/27 01:32:56;;;;;;;79.15;26.02;;;;;;;3.28;85.98;102704.81;5083683;28;20025;-74
2022/01/27 01:35:36;;;;;;;77.82;24.77;;;;;;;3.28;85.75;102697.97;5082134;28;20024;-74
2022/01/27 01:38:01;;;;;;;83.55;27.77;;;;;;;3.33;85.69;102705.19;5083175;28;20027;-73
2022/01/27 01:40:27;;;;;;;81.38;25.38;;;;;;;3.33;85.75;102690.63;5079356;28;20080;-74
2022/01/27 01:42:52;;;;;;;80.07;27.40;;;;;;;3.34;85.72;102671.81;5082641;28;20021;-74
2022/01/27 01:45:19;;;;;;;78.47;25.23;;;;;;;3.35;85.57;102675.31;5085679;28;20025;-73
2022/01/27 01:47:47;;;;;;;81.10;26.70;;;;;;;3.34;85.64;102661.50;5081190;28;20039;-74
2022/01/27 01:50:13;;;;;;;81.60;24.95;;;;;;;3.36;85.75;102659.06;5079608;28;20017;-73
2022/01/27 01:52:39;;;;;;;81.00;24.48;;;;;;;3.36;85.60;102667.72;5092916;28;20051;-73
2022/01/27 01:55:06;;;;;;;78.65;25.92;;;;;;;3.36;85.52;102678.00;5085337;28;20024;-74
2022/01/27 01:57:32;;;;;;;83.75;28.10;;;;;;;3.37;85.37;102681.47;5078680;28;20047;-73
2022/01/27 01:59:58;;;;;;;78.22;25.40;;;;;;;3.38;85.48;102678.13;5086574;28;20321;-74
2022/01/27 02:02:24;;;;;;;80.78;25.80;;;;;;;3.37;85.65;102674.63;5084917;28;20225;-74
2022/01/27 02:04:49;;;;;;;74.05;24.95;;;;;;;3.38;85.73;102683.28;5078941;28;20019;-73
2022/01/27 02:07:29;;;;;;;84.40;26.23;;;;;;;3.37;85.76;102666.91;5084835;28;20259;-73
2022/01/27 02:18:08;;;;;;;77.07;25.90;;;;;;;3.39;86.02;102626.72;5081506;28;20024;-74
2022/01/27 02:20:36;;;;;;;75.47;25.55;;;;;;;3.40;85.98;102619.88;5088167;28;20054;-74
2022/01/27 02:23:05;;;;;;;79.00;26.00;;;;;;;3.40;85.68;102625.03;5083158;28;20043;-74
2022/01/27 02:25:31;;;;;;;;;;;;;;;3.44;86.04;102627.09;5083196;28;20217;-74
2022/01/27 02:27:57;;;;;;;73.55;23.35;;;;;;;3.42;85.71;102636.38;5080449;28;19912;-74
2022/01/27 02:30:24;;;;;;;76.97;25.45;;;;;;;3.43;85.76;102633.00;5085978;28;20187;-73
2022/01/27 02:32:52;;;;;;;71.93;24.52;;;;;;;3.44;85.69;102634.81;5072844;28;20016;-74
2022/01/27 02:35:18;;;;;;;79.25;25.65;;;;;;;3.43;85.93;102628.78;5085800;28;20044;-74
2022/01/27 02:37:44;;;;;;;75.40;24.08;;;;;;;3.44;85.41;102627.09;5081637;28;20016;-73
2022/01/27 02:40:11;;;;;;;81.90;25.40;;;;;;;3.44;86.01;102627.09;5081992;28;20278;-73
2022/01/27 02:42:37;;;;;;;74.47;24.40;;;;;;;3.45;85.82;102634.06;5081277;28;20043;-73
2022/01/27 02:45:13;;;;;;;80.55;24.75;;;;;;;3.45;86.19;102614.34;5090526;28;20031;-73
2022/01/27 02:47:38;;;;;;;78.45;24.42;;;;;;;3.45;86.18;102609.19;5083950;28;20038;-74
2022/01/27 02:50:05;;;;;;;74.60;25.02;;;;;;;3.46;86.40;102604.91;5089753;28;20040;-74
2022/01/27 02:52:30;;;;;;;76.93;24.42;;;;;;;3.46;86.24;102610.06;5082354;28;20263;-74
2022/01/27 02:54:56;;;;;;;75.70;24.25;;;;;;;3.47;86.26;102610.19;5080578;28;20023;-74
2022/01/27 02:57:22;;;;;;;68.90;23.05;;;;;;;3.48;86.30;102603.38;5080609;28;20024;-73
2022/01/27 02:59:48;;;;;;;72.65;24.23;;;;;;;3.50;86.31;102596.66;5086281;28;20060;-74
2022/01/27 03:02:13;;;;;;;72.10;24.75;;;;;;;3.51;86.11;102585.59;5078394;28;20028;-74
2022/01/27 03:04:38;;;;;;;72.25;23.00;;;;;;;3.53;86.23;102572.81;5077513;28;20019;-74
2022/01/27 03:07:05;;;;;;;73.63;24.45;;;;;;;3.53;86.06;102562.50;5084160;28;20092;-74
2022/01/27 03:09:33;;;;;;;79.30;23.90;;;;;;;3.53;86.25;102560.81;5087233;28;20375;-74
2022/01/27 03:12:07;;;;;;;76.22;23.88;;;;;;;3.54;86.49;102580.66;5083594;28;20094;-74
2022/01/27 03:14:34;;;;;;;73.85;23.60;;;;;;;3.54;86.54;102580.66;5088291;28;20032;-74
2022/01/27 03:17:01;;;;;;;72.38;23.77;;;;;;;3.53;86.30;102584.00;5082615;28;20147;-74
2022/01/27 03:19:27;;;;;;;72.85;23.95;;;;;;;3.54;86.54;102570.38;5088042;28;20036;-74
2022/01/27 03:21:54;;;;;;;69.55;23.75;;;;;;;3.54;86.37;102566.91;5088562;28;20251;-74
2022/01/27 03:24:24;;;;;;;69.53;23.17;;;;;;;3.52;86.54;102555.53;5081548;28;20017;-74
2022/01/27 03:26:51;;;;;;;73.43;23.00;;;;;;;3.52;87.00;102551.31;5088127;28;20179;-74
2022/01/27 03:29:18;;;;;;;74.05;24.40;;;;;;;3.52;86.28;102547.81;5078459;28;20029;-74
2022/01/27 03:31:46;;;;;;;78.80;25.67;;;;;;;3.51;86.74;102549.50;5089384;28;20020;-74
2022/01/27 03:34:12;;;;;;;71.85;23.90;;;;;;;3.52;86.45;102558.13;5098355;28;20047;-74
2022/01/27 03:36:38;;;;;;;77.00;22.50;;;;;;;3.51;86.96;102546.94;5096073;28;20566;-74
2022/01/27 03:39:05;;;;;;;68.07;22.50;;;;;;;3.53;86.71;102554.78;5086493;28;20073;-74
2022/01/27 03:41:35;;;;;;;71.05;22.17;;;;;;;3.51;86.71;102541.78;5084673;28;20016;-74
2022/01/27 03:44:01;;;;;;;66.80;22.88;;;;;;;3.49;86.82;102548.50;5083720;28;20021;-74
2022/01/27 03:46:27;;;;;;;71.18;23.27;;;;;;;3.49;86.84;102553.66;5079388;28;20027;-74
2022/01/27 03:48:52;;;;;;;62.90;22.75;;;;;;;3.50;86.92;102551.97;5082005;28;20041;-74
2022/01/27 03:51:17;;;;;;;67.07;22.08;;;;;;;3.50;86.91;102550.28;5085362;28;20255;-74
2022/01/27 03:53:42;;;;;;;72.93;22.45;;;;;;;3.50;86.93;102550.28;5084020;28;20013;-74
2022/01/27 03:56:08;;;;;;;70.50;22.88;;;;;;;3.52;87.41;102543.59;5086849;28;20183;-74
2022/01/27 03:58:34;;;;;;;80.88;24.00;;;;;;;3.53;87.33;102542.78;5075207;28;20008;-74
2022/01/27 04:01:02;;;;;;;75.68;23.48;;;;;;;3.54;87.52;102541.13;5084996;28;20022;-74
2022/01/27 04:03:32;;;;;;;74.50;22.95;;;;;;;3.55;87.52;102528.34;5089314;28;20298;-74
2022/01/27 04:06:05;;;;;;;72.63;22.83;;;;;;;3.56;87.24;102526.66;5084315;28;20020;-74
2022/01/27 04:08:31;;;;;;;72.35;22.38;;;;;;;3.56;87.37;102519.81;5084417;28;20008;-74
2022/01/27 04:10:56;;;;;;;71.10;22.75;;;;;;;3.56;87.49;102514.66;5087249;28;20042;-74
2022/01/27 04:13:21;;;;;;;71.05;21.55;;;;;;;3.57;87.42;102513.91;5070379;28;20021;-74
2022/01/27 04:15:46;;;;;;;69.38;22.58;;;;;;;3.57;87.32;102498.44;5083542;28;20047;-74
2022/01/27 04:18:12;;;;;;;66.68;22.55;;;;;;;3.56;87.40;102499.19;5087589;28;20012;-74
2022/01/27 04:20:39;;;;;;;73.85;22.23;;;;;;;3.57;88.09;102507.84;5079739;28;20229;-74
2022/01/27 04:23:06;;;;;;;72.75;22.58;;;;;;;3.58;87.63;102520.88;5085895;28;20088;-74
2022/01/27 04:25:32;;;;;;;67.40;22.17;;;;;;;3.60;88.01;102502.94;5088473;28;20091;-74
2022/01/27 04:28:02;;;;;;;68.63;21.83;;;;;;;3.60;87.83;102501.25;5080896;28;20037;-74
2022/01/27 04:30:28;;;;;;;69.75;22.27;;;;;;;3.60;87.82;102506.41;5080123;28;20031;-74
2022/01/27 04:32:57;;;;;;;64.00;20.77;;;;;;;3.61;87.90;102499.59;5083657;28;20028;-74
2022/01/27 04:35:26;;;;;;;70.53;22.38;;;;;;;3.62;87.70;102497.13;5075682;28;20051;-74
2022/01/27 04:40:50;;;;;;;63.63;21.15;;;;;;;3.62;87.79;102481.66;5077369;28;20027;-74
2022/01/27 04:43:41;;;;;;;70.97;21.33;;;;;;;3.60;87.83;102470.31;5075884;28;20044;-74
2022/01/27 04:48:43;;;;;;;70.07;21.05;;;;;;;3.58;87.81;102471.00;5079691;28;20032;-74
2022/01/27 04:51:12;;;;;;;69.68;21.67;;;;;;;3.57;87.79;102464.03;5085282;28;20024;-74
2022/01/27 04:54:05;;;;;;;62.92;21.48;;;;;;;3.56;87.94;102478.59;5080714;28;20174;-74
2022/01/27 04:56:25;;;;;;;68.45;22.40;;;;;;;3.55;87.98;102476.81;5086743;28;20135;-74
2022/01/27 04:58:55;;;;;;;72.03;22.40;;;;;;;3.56;88.23;102468.28;5083291;28;20019;-74
2022/01/27 05:01:27;;;;;;;67.10;21.17;;;;;;;3.56;87.96;102452.81;5082389;28;20035;-74
2022/01/27 05:04:00;;;;;;;67.88;21.05;;;;;;;3.54;88.05;102446.66;5077624;28;20141;-74
2022/01/27 05:06:25;;;;;;;62.83;20.58;;;;;;;3.53;88.26;102442.28;5088275;28;20020;-74
2022/01/27 05:08:50;;;;;;;67.57;21.10;;;;;;;3.55;88.57;102460.44;5086122;28;20255;-74
2022/01/27 05:11:23;;;;;;;63.58;21.15;;;;;;;3.56;88.33;102442.50;5083126;28;20270;-74
2022/01/27 05:13:55;;;;;;;66.72;21.33;;;;;;;3.57;88.41;102446.00;5080614;28;20021;-74
2022/01/27 05:16:20;;;;;;;71.32;21.48;;;;;;;3.56;88.48;102442.50;5083090;28;20041;-74
2022/01/27 05:18:46;;;;;;;70.28;20.88;;;;;;;3.55;88.51;102445.88;5087076;28;20083;-74
2022/01/27 05:21:11;;;;;;;66.78;20.98;;;;;;;3.55;88.49;102435.56;5083319;28;20027;-74
2022/01/27 05:23:36;;;;;;;66.25;22.17;;;;;;;3.54;88.68;102438.94;5085794;28;20039;-74
2022/01/27 05:26:02;;;;;;;70.55;20.80;;;;;;;3.53;88.82;102439.69;5080739;28;20021;-74
2022/01/27 05:28:27;;;;;;;66.90;20.30;;;;;;;3.53;88.79;102431.97;5085468;28;20042;-74
2022/01/27 05:30:52;;;;;;;65.47;22.13;;;;;;;3.55;88.90;102424.34;5082576;28;20020;-74
2022/01/27 05:33:18;;;;;;;62.97;20.98;;;;;;;3.56;88.76;102419.31;5084739;28;20019;-74
2022/01/27 05:35:45;;;;;;;60.58;20.27;;;;;;;3.58;88.91;102412.63;5088141;28;20028;-74
2022/01/27 05:38:13;;;;;;;66.95;21.63;;;;;;;3.59;88.82;102419.56;5092304;28;20019;-74
2022/01/27 05:40:38;;;;;;;74.18;22.10;;;;;;;3.60;88.57;102411.03;5085410;28;20040;-74
2022/01/27 05:43:03;;;;;;;73.07;22.27;;;;;;;3.60;89.12;102418.78;5091250;28;20179;-74
2022/01/27 05:45:29;;;;;;;68.32;22.35;;;;;;;3.64;88.90;102420.81;5090389;28;20020;-74
2022/01/27 05:47:54;;;;;;;64.10;21.48;;;;;;;3.65;89.09;102416.56;5088320;28;20047;-74
2022/01/27 05:50:20;;;;;;;64.97;22.25;;;;;;;3.67;89.00;102422.72;5092835;28;20024;-74
2022/01/27 05:52:45;;;;;;;68.78;21.35;;;;;;;3.69;89.15;102409.97;5090869;28;20100;-74
2022/01/27 05:55:12;;;;;;;73.07;21.90;;;;;;;3.70;88.97;102419.50;5093192;28;20240;-74
2022/01/27 05:57:37;;;;;;;68.40;22.63;;;;;;;3.70;89.12;102404.91;5082010;28;20025;-74
2022/01/27 06:00:04;;;;;;;68.97;21.33;;;;;;;3.72;88.93;102402.47;5081003;28;20012;-74
2022/01/27 06:02:29;;;;;;;69.13;22.08;;;;;;;3.74;89.19;102416.38;5087165;28;20021;-74
2022/01/27 06:04:55;;;;;;;59.40;20.05;;;;;;;3.75;89.12;102398.44;5084159;28;20168;-74
2022/01/27 06:07:20;;;;;;;63.20;20.55;;;;;;;3.77;88.97;102403.72;5081958;28;20287;-74
2022/01/27 06:09:46;;;;;;;65.60;20.63;;;;;;;3.78;89.23;102400.34;5079002;28;20147;-74
2022/01/27 06:12:11;;;;;;;65.25;21.13;;;;;;;3.81;88.83;102398.03;5080944;28;20167;-74
2022/01/27 06:14:36;;;;;;;64.55;21.33;;;;;;;3.83;89.23;102392.19;5088974;28;20040;-74
2022/01/27 06:17:02;;;;;;;63.88;21.80;;;;;;;3.85;89.26;102389.72;5090536;28;20069;-74
2022/01/27 06:19:28;;;;;;;72.15;22.75;;;;;;;3.86;89.58;102383.78;5088670;28;20031;-74
2022/01/27 06:21:53;;;;;;;76.10;22.42;;;;;;;3.88;89.39;102395.13;5090463;28;20247;-73
2022/01/27 06:24:19;;;;;;;70.00;21.80;;;;;;;3.88;89.88;102392.56;5083828;28;20050;-73
2022/01/27 06:26:44;;;;;;;73.43;22.92;;;;;;;3.89;90.12;102384.00;5092039;28;20074;-73
2022/01/27 06:29:09;;;;;;;67.05;21.45;;;;;;;3.90;90.07;102382.34;5083169;28;20027;-73
2022/01/27 06:31:35;;;;;;;70.70;21.60;;;;;;;3.89;90.63;102389.16;5077789;28;20123;-73
2022/01/27 06:34:00;;;;;;;73.15;22.83;;;;;;;3.89;90.58;102396.91;5082455;28;20016;-74
2022/01/27 06:36:26;;;;;;;70.43;21.65;;;;;;;3.89;90.31;102399.47;5085087;28;20051;-73
2022/01/27 06:38:51;;;;;;;70.53;22.42;;;;;;;3.92;90.58;102388.50;5087395;28;20092;-73
2022/01/27 06:41:16;;;;;;;64.20;21.80;;;;;;;3.93;90.92;102383.47;5080292;28;20017;-73
2022/01/27 06:43:42;;;;;;;71.55;22.23;;;;;;;3.93;91.12;102383.47;5085716;28;20024;-73
2022/01/27 06:46:07;;;;;;;81.72;22.67;;;;;;;3.93;91.03;102360.25;5087221;28;20043;-74
2022/01/27 06:48:32;;;;;;;77.10;22.70;;;;;;;3.93;90.72;102360.25;5079455;28;20031;-74
2022/01/27 06:50:58;;;;;;;72.90;22.70;;;;;;;3.95;91.25;102363.88;5079101;28;20048;-73
2022/01/27 06:53:23;;;;;;;80.13;23.17;;;;;;;3.97;91.19;102359.72;5078931;28;20021;-73
2022/01/27 06:55:49;;;;;;;75.55;22.83;;;;;;;3.99;91.01;102363.28;5084307;28;20036;-74
2022/01/27 06:58:15;;;;;;;74.07;23.77;;;;;;;4.00;91.29;102366.78;5083614;28;20081;-74
2022/01/27 07:00:41;;;;;;;64.13;21.60;;;;;;;4.02;91.51;102361.75;5075550;28;20016;-73
2022/01/27 07:03:06;;;;;;;76.30;23.02;;;;;;;4.04;91.24;102365.31;5081605;28;20020;-73
2022/01/27 07:05:33;;;;;;;73.75;21.83;;;;;;;4.05;91.02;102351.66;5089223;28;20028;-73
2022/01/27 07:08:00;;;;;;;67.03;21.90;;;;;;;4.06;91.30;102358.59;5084638;28;20016;-73
2022/01/27 07:10:25;;;;;;;75.40;23.80;;;;;;;4.08;91.23;102362.19;5082941;28;20031;-73
2022/01/27 07:12:50;;;;;;;73.80;21.67;;;;;;;4.08;91.06;102368.22;5082430;28;20013;-73
2022/01/27 07:15:16;;;;;;;75.80;23.30;;;;;;;4.11;91.34;102365.00;5083685;28;20111;-74
2022/01/27 07:17:41;;;;;;;77.90;24.67;;;;;;;4.12;91.25;102361.63;5085195;28;20016;-73
2022/01/27 07:20:07;;;;;;;78.38;22.67;;;;;;;4.13;90.95;102360.84;5085844;28;20103;-74
2022/01/27 07:22:34;;;;;;;69.88;22.10;;;;;;;4.15;90.88;102367.00;5086131;28;20021;-73
2022/01/27 07:25:01;;;;;;;77.32;23.42;;;;;;;4.15;91.19;102374.75;5077879;28;20087;-73
2022/01/27 07:27:26;;;;;;;74.15;23.23;;;;;;;4.15;91.04;102365.31;5086780;28;20034;-74
2022/01/27 07:29:51;;;;;;;80.95;24.20;;;;;;;4.16;91.00;102372.28;5082394;28;20178;-74
2022/01/27 07:32:17;;;;;;;76.78;24.73;;;;;;;4.17;91.15;102376.69;5084840;28;20021;-73
2022/01/27 07:34:42;;;;;;;75.00;23.75;;;;;;;4.18;91.44;102370.69;5078544;28;20262;-74
2022/01/27 07:37:07;;;;;;;80.78;23.45;;;;;;;4.21;91.07;102376.91;5090764;28;20036;-73
2022/01/27 07:39:32;;;;;;;77.28;23.27;;;;;;;4.23;90.81;102380.47;5069060;28;20220;-73
2022/01/27 07:42:01;;;;;;;78.57;24.23;;;;;;;4.24;90.89;102378.00;5082421;28;20020;-74
2022/01/27 07:44:27;;;;;;;74.47;24.83;;;;;;;4.26;91.02;102373.88;5081872;28;20047;-73
2022/01/27 07:46:53;;;;;;;72.70;23.25;;;;;;;4.27;90.97;102379.91;5089895;28;20024;-73
2022/01/27 07:49:19;;;;;;;74.38;23.38;;;;;;;4.28;91.04;102377.44;5080008;28;20008;-73
2022/01/27 07:51:44;;;;;;;77.03;24.52;;;;;;;4.30;91.47;102375.91;5086963;28;20095;-74
2022/01/27 07:54:09;;;;;;;69.13;23.00;;;;;;;4.31;92.01;102382.84;5074851;28;20015;-77
2022/01/27 07:56:35;;;;;;;80.47;23.83;;;;;;;4.32;92.21;102382.06;5079377;28;20016;-75
2022/01/27 07:59:00;;;;;;;88.38;25.55;;;;;;;4.30;92.89;102388.81;5070408;28;20088;-73
2022/01/27 08:01:25;;;;;;;85.75;25.00;;;;;;;4.29;93.55;102394.75;5075704;28;20016;-74
2022/01/27 08:03:51;;;;;;;89.20;26.60;;;;;;;4.29;93.83;102392.16;5077532;28;20047;-74
2022/01/27 08:06:16;;;;;;;96.20;26.92;;;;;;;4.29;94.63;102396.44;5074587;28;20037;-73
2022/01/27 08:08:43;;;;;;;90.53;27.35;;;;;;;4.24;94.93;102383.16;5077512;28;20012;-73
2022/01/27 08:11:08;;;;;;;86.10;25.75;;;;;;;4.24;95.49;102396.06;5073311;28;20044;-74
2022/01/27 08:13:34;;;;;;;88.25;26.23;;;;;;;4.23;95.88;102393.38;5075938;28;20027;-74
2022/01/27 08:15:59;;;;;;;95.47;27.70;;;;;;;4.22;95.98;102387.31;5077874;28;20053;-73
2022/01/27 08:18:24;;;;;;;89.22;27.40;;;;;;;4.20;95.87;102388.91;5080434;28;20145;-73
2022/01/27 08:20:50;;;;;;;93.93;27.55;;;;;;;4.21;96.63;102390.69;5074672;28;20289;-74
2022/01/27 08:23:15;;;;;;;91.18;27.90;;;;;;;4.20;96.68;102383.75;5083030;28;20081;-73
2022/01/27 08:25:42;;;;;;;109.32;32.80;;;;;;;4.21;96.95;102382.94;5097719;28;20024;-73
2022/01/27 08:28:23;;;;;;;112.57;33.00;;;;;;;4.21;97.11;102380.38;5093549;28;20047;-73
2022/01/27 08:30:51;;;;;;;87.68;28.70;;;;;;;4.22;97.28;102383.88;5087283;28;20020;-74
2022/01/27 08:33:18;;;;;;;100.38;28.75;;;;;;;4.22;97.43;102376.13;5082951;28;20061;-74
2022/01/27 08:35:44;;;;;;;106.32;30.00;;;;;;;4.21;97.61;102380.38;5094913;28;20303;-74
2022/01/27 08:38:09;;;;;;;95.90;29.60;;;;;;;4.21;97.58;102370.03;5088291;28;20047;-74
2022/01/27 08:40:35;;;;;;;92.07;28.25;;;;;;;4.23;97.67;102376.22;5085859;28;20029;-74
2022/01/27 08:43:00;;;;;;;97.50;29.95;;;;;;;4.23;97.69;102377.88;5082458;28;20017;-74
2022/01/27 08:45:26;;;;;;;103.40;29.90;;;;;;;4.24;97.98;102374.53;5094078;28;20019;-74
2022/01/27 08:47:54;;;;;;;92.07;28.75;;;;;;;4.24;98.07;102375.44;5098706;28;20024;-74
2022/01/27 08:50:21;;;;;;;91.25;28.25;;;;;;;4.26;97.83;102375.53;5089221;28;20096;-74
2022/01/27 08:52:47;;;;;;;89.88;28.83;;;;;;;4.27;98.31;102378.25;5093087;28;20021;-74
2022/01/27 08:55:13;;;;;;;101.80;29.38;;;;;;;4.28;98.22;102376.56;5074931;28;20278;-74
2022/01/27 08:57:39;;;;;;;101.38;29.30;;;;;;;4.30;97.95;102368.16;5093268;28;20024;-74
2022/01/27 09:00:12;;;;;;;100.90;29.67;;;;;;;4.33;98.09;102370.97;5101979;28;20228;-74
2022/01/27 09:02:38;;;;;;;102.82;30.27;;;;;;;4.35;98.28;102384.88;5097775;28;20255;-74
2022/01/27 09:05:04;;;;;;;103.35;29.88;;;;;;;4.38;98.52;102385.88;5076675;28;20032;-74
2022/01/27 09:07:30;;;;;;;102.18;30.92;;;;;;;4.40;98.50;102386.88;5098566;28;20020;-74
2022/01/27 09:09:56;;;;;;;105.45;31.90;;;;;;;4.41;98.48;102384.41;5083937;28;20031;-74
2022/01/27 09:12:21;;;;;;;100.75;30.13;;;;;;;4.43;98.72;102382.88;5079076;28;20024;-74
2022/01/27 09:14:46;;;;;;;101.65;29.77;;;;;;;4.45;98.87;102370.97;5095704;28;20040;-74
2022/01/27 09:17:14;;;;;;;115.15;32.10;;;;;;;4.49;99.16;102367.81;5092434;28;20122;-74
2022/01/27 09:19:41;;;;;;;94.75;29.92;;;;;;;4.50;99.07;102371.28;5088773;28;20036;-74
2022/01/27 09:22:13;;;;;;;98.35;30.80;;;;;;;4.53;99.18;102368.94;5082876;28;20082;-74
2022/01/27 09:24:49;;;;;;;103.28;30.92;;;;;;;4.54;99.19;102370.72;5075973;28;20263;-74
2022/01/27 09:27:15;;;;;;;100.93;31.70;;;;;;;4.57;99.28;102367.47;5089409;28;20052;-74
2022/01/27 09:29:40;;;;;;;101.00;31.77;;;;;;;4.60;99.64;102368.59;5079145;28;20126;-74
2022/01/27 09:32:06;;;;;;;102.78;32.05;;;;;;;4.61;99.36;102366.91;5089552;28;20054;-74
2022/01/27 09:34:32;;;;;;;104.95;31.83;;;;;;;4.63;99.67;102371.38;5089801;28;20267;-74
2022/01/27 09:37:02;;;;;;;96.88;32.15;;;;;;;4.65;99.58;102368.91;5089804;28;20059;-74
2022/01/27 09:39:27;;;;;;;97.35;31.02;;;;;;;4.66;99.81;102365.56;5082073;28;20023;-74
2022/01/27 09:41:55;;;;;;;100.30;30.48;;;;;;;4.69;99.75;102371.84;5083501;28;20020;-74
2022/01/27 09:44:26;;;;;;;91.05;30.35;;;;;;;4.70;100.00;102371.03;5089300;28;20024;-74
2022/01/27 09:46:55;;;;;;;87.50;28.95;;;;;;;4.73;99.82;102372.06;5079845;28;20027;-73
2022/01/27 09:49:30;;;;;;;92.90;31.63;;;;;;;4.76;100.00;102369.69;5078923;28;20212;-73
2022/01/27 09:51:55;;;;;;;98.75;32.30;;;;;;;4.76;99.93;102372.28;5097120;28;20043;-74
2022/01/27 09:54:21;;;;;;;96.43;29.98;;;;;;;4.79;100.00;102381.13;5087166;28;20062;-74
2022/01/27 09:56:46;;;;;;;92.15;30.08;;;;;;;4.80;100.00;102387.22;5090260;28;20058;-74
2022/01/27 09:59:11;;;;;;;91.72;30.85;;;;;;;4.81;99.76;102381.28;5083414;28;20248;-74
2022/01/27 10:01:37;;;;;;;82.47;29.30;;;;;;;4.81;99.96;102379.56;5078718;28;20016;-74
2022/01/27 10:04:04;;;;;;;82.30;28.90;;;;;;;4.83;100.00;102384.84;5085601;28;20039;-74
2022/01/27 10:06:31;;;;;;;81.20;29.17;;;;;;;4.84;100.00;102387.53;5083255;28;20020;-74
2022/01/27 10:09:25;;;;;;;76.57;27.38;;;;;;;4.88;100.00;102388.63;5075899;28;20148;-65
2022/01/27 10:11:51;;;;;;;90.65;29.73;;;;;;;4.90;100.00;102391.38;5075620;28;20032;-66
2022/01/27 10:14:32;;;;;;;78.95;28.35;;;;;;;4.91;100.00;102383.72;5087021;28;20018;-65
2022/01/27 10:17:00;;;;;;;79.75;28.05;;;;;;;4.92;100.00;102379.44;5105532;28;20024;-65
2022/01/27 10:19:26;;;;;;;77.55;27.95;;;;;;;4.94;100.00;102381.34;5101109;28;20017;-66
2022/01/27 10:22:00;;;;;;;79.82;28.80;;;;;;;4.96;100.00;102387.50;5086968;28;20016;-66
2022/01/27 10:24:29;;;;;;;79.65;28.27;;;;;;;4.97;100.00;102386.75;5078181;28;20020;-66
2022/01/27 10:32:36;;;;;;;79.15;26.23;;;;;;;5.03;100.00;102374.25;5096389;28;20087;-65
2022/01/27 10:35:04;;;;;;;67.75;25.70;;;;;;;5.04;100.00;102381.22;5102905;28;20035;-65
2022/01/27 10:38:06;;;;;;;74.32;26.88;;;;;;;5.05;100.00;102375.28;5096425;28;20279;-65
2022/01/27 10:40:41;;;;;;;69.43;25.73;;;;;;;5.08;100.00;102381.44;5100955;28;20016;-66
2022/01/27 10:43:11;;;;;;;63.85;24.15;;;;;;;5.10;100.00;102379.84;5097564;28;20026;-65
2022/01/27 10:45:40;;;;;;;66.68;25.70;;;;;;;5.12;100.00;102373.09;5098917;28;20024;-65
2022/01/27 10:48:15;;;;;;;69.60;25.58;;;;;;;5.12;100.00;102376.59;5101554;28;20103;-66
2022/01/27 10:50:48;;;;;;;72.75;26.65;;;;;;;5.12;100.00;102379.16;5099994;28;20019;-66
2022/01/27 10:53:13;;;;;;;65.68;24.80;;;;;;;5.15;100.00;102378.50;5104887;28;20031;-66
2022/01/27 10:55:40;;;;;;;66.90;25.95;;;;;;;5.16;100.00;102375.13;5105180;28;20267;-66
2022/01/27 10:58:25;;;;;;;62.90;25.00;;;;;;;5.19;100.00;102367.59;5105064;28;20318;-66
2022/01/27 11:00:59;;;;;;;63.97;24.02;;;;;;;5.22;100.00;102381.59;5079929;28;20063;-66
2022/01/27 11:03:26;;;;;;;68.75;26.02;;;;;;;5.24;100.00;102373.94;5091591;28;20043;-66
2022/01/27 11:05:51;;;;;;;58.83;22.98;;;;;;;5.27;100.00;102388.78;5104959;28;20083;-65
2022/01/27 11:08:21;;;;;;;65.75;24.17;;;;;;;5.31;100.00;102375.28;5077276;28;20020;-65
2022/01/27 11:10:48;;;;;;;64.05;25.15;;;;;;;5.34;100.00;102370.34;5093395;28;20318;-65
2022/01/27 11:13:16;;;;;;;65.20;24.30;;;;;;;5.37;100.00;102373.13;5104699;28;20095;-65
2022/01/27 11:15:42;;;;;;;65.57;26.33;;;;;;;5.39;100.00;102372.44;5104919;28;20336;-66
2022/01/27 11:18:09;;;;;;;65.65;25.13;;;;;;;5.44;100.00;102369.28;5103830;28;20027;-66
2022/01/27 11:21:28;;;;;;;65.57;24.70;;;;;;;5.46;100.00;102367.69;5091842;28;20020;-66
2022/01/27 11:26:07;;;;;;;66.18;25.63;;;;;;;5.51;100.00;102359.47;5099609;28;20254;-66
2022/01/27 11:28:33;;;;;;;64.25;24.75;;;;;;;5.51;100.00;102351.72;5104463;28;20069;-65
2022/01/27 11:31:14;;;;;;;69.68;25.45;;;;;;;5.56;100.00;102341.69;5094447;28;20031;-75
2022/01/27 11:33:43;;;;;;;62.85;23.67;;;;;;;5.60;100.00;102346.28;5104343;28;20133;-75
2022/01/27 11:36:19;;;;;;;79.20;29.52;;;;;;;5.64;100.00;102339.63;5090187;28;20034;-75
2022/01/27 11:38:46;;;;;;;69.00;25.20;;;;;;;5.69;100.00;102333.97;5104429;28;20024;-76
2022/01/27 11:41:39;;;;;;;57.20;24.88;;;;;;;5.72;100.00;102331.59;5095351;28;20028;-75
2022/01/27 11:44:20;;;;;;;68.45;26.98;;;;;;;5.77;100.00;102336.19;5104097;28;20476;-75
2022/01/27 11:47:14;;;;;;;68.32;25.33;;;;;;;5.79;100.00;102324.25;5104421;28;20069;-75
2022/01/27 11:49:55;;;;;;;67.18;25.60;;;;;;;5.82;100.00;102322.78;5095277;28;20024;-75
2022/01/27 11:52:26;;;;;;;58.28;23.63;;;;;;;5.86;100.00;102331.63;5104660;28;20071;-75
2022/01/27 11:54:52;;;;;;;62.90;24.23;;;;;;;5.88;100.00;102318.00;5102967;28;20016;-75
2022/01/27 11:57:42;;;;;;;63.42;25.13;;;;;;;5.92;100.00;102326.84;5096755;28;20075;-75
2022/01/27 12:00:13;;;;;;;59.97;23.27;;;;;;;5.93;100.00;102326.06;5099207;28;20111;-75
2022/01/27 12:03:02;;;;;;;63.90;22.70;;;;;;;5.94;100.00;102320.09;5088617;28;20075;-75
2022/01/27 12:05:30;;;;;;;52.30;21.17;;;;;;;5.98;100.00;102326.41;5100912;28;20031;-75
2022/01/27 12:08:14;;;;;;;54.60;22.02;;;;;;;5.98;100.00;102316.97;5103982;28;20004;-75
2022/01/27 12:10:47;;;;;;;47.08;20.55;;;;;;;6.02;100.00;102318.03;5103936;28;20024;-76